Time;durP1;ratioP1;P1;durP2;ratioP2;P2;SDS_P1;SDS_P2;PMS_P1;PMS_P2;Temp;Humidity;BMP_temperature;BMP_pressure;BME280_temperature;BME280_humidity;BME280_pressure;Samples;Min_cycle;Max_cycle;Signal;HPM_P1;HPM_P2
2022/07/23 00:01:21;;;;;;;5.32;3.90;;;24.00;86.90;;;24.03;54.42;97224.31;5006113;28;20029;-36
2022/07/23 00:03:47;;;;;;;5.82;3.90;;;23.90;87.60;;;23.98;54.50;97221.19;5003362;28;20109;-38
2022/07/23 00:06:13;;;;;;;4.80;3.60;;;23.90;87.70;;;23.93;55.36;97243.16;5006333;28;20112;-38
2022/07/23 00:08:38;;;;;;;4.97;4.13;;;23.80;88.20;;;23.86;55.32;97228.56;5005115;28;20028;-38
2022/07/23 00:11:04;;;;;;;4.78;3.65;;;23.80;88.30;;;23.82;55.46;97221.78;5009721;28;20026;-38
2022/07/23 00:13:30;;;;;;;6.15;3.72;;;23.70;88.30;;;23.81;56.40;97223.63;5007042;28;20493;-38
2022/07/23 00:15:55;;;;;;;7.10;3.65;;;23.70;89.20;;;23.76;56.40;97225.88;5006286;28;20033;-38
2022/07/23 00:18:21;;;;;;;4.88;4.03;;;23.70;89.10;;;23.69;57.92;97210.41;5004096;28;20402;-38
2022/07/23 00:20:47;;;;;;;4.80;3.90;;;23.60;90.10;;;23.64;57.77;97224.31;5005825;28;20478;-38
2022/07/23 00:23:13;;;;;;;6.32;4.47;;;23.60;90.10;;;23.57;57.87;97220.50;5006086;28;20033;-38
2022/07/23 00:25:39;;;;;;;4.15;3.75;;;23.50;90.10;;;23.53;58.39;97213.72;5005676;28;20029;-38
2022/07/23 00:28:05;;;;;;;4.82;3.65;;;23.50;90.20;;;23.50;58.44;97224.75;5005774;28;20034;-38
2022/07/23 00:30:32;;;;;;;3.83;3.53;;;23.40;90.30;;;23.48;59.23;97219.50;5003273;28;20026;-38
2022/07/23 00:33:03;;;;;;;5.20;3.92;;;23.40;90.60;;;23.42;59.44;97206.63;5003774;28;20049;-38
2022/07/23 00:35:36;;;;;;;4.93;3.83;;;23.40;90.60;;;23.36;59.43;97199.94;5005994;28;20084;-38
2022/07/23 00:38:04;;;;;;;4.63;4.05;;;23.30;90.60;;;23.34;59.57;97207.31;5002909;28;20034;-38
2022/07/23 00:40:31;;;;;;;4.20;3.58;;;23.30;90.80;;;23.32;60.34;97209.31;5003849;28;20506;-38
2022/07/23 00:42:58;;;;;;;4.72;3.97;;;23.30;91.00;;;23.27;67.17;97203.50;5003470;28;20038;-38
2022/07/23 00:45:24;;;;;;;6.32;3.97;;;23.20;92.80;;;23.15;69.12;97201.94;5003743;28;20041;-38
2022/07/23 00:47:50;;;;;;;4.53;3.85;;;23.00;93.90;;;22.98;69.76;97192.69;5005938;28;20034;-38
2022/07/23 00:50:16;;;;;;;4.40;3.67;;;22.90;94.20;;;22.83;69.69;97162.66;5002379;28;20028;-38
2022/07/23 00:52:42;;;;;;;5.72;4.13;;;22.80;94.30;;;22.69;69.74;97163.91;5005977;28;20022;-38
2022/07/23 00:55:09;;;;;;;5.85;4.28;;;22.70;94.40;;;22.68;68.18;97167.56;5005174;28;20561;-38
2022/07/23 00:57:37;;;;;;;5.75;3.78;;;22.60;94.00;;;22.51;68.57;97173.63;5005910;28;20084;-38
2022/07/23 01:00:06;;;;;;;4.90;3.72;;;22.50;94.10;;;22.36;69.30;97170.44;5001301;28;20023;-38
2022/07/23 01:02:32;;;;;;;4.82;3.35;;;22.40;94.10;;;22.32;69.09;97186.00;5006108;28;20501;-38
2022/07/23 01:04:58;;;;;;;4.82;3.90;;;22.30;94.20;;;22.28;69.23;97193.47;5005627;28;20394;-38
2022/07/23 01:07:24;;;;;;;3.83;3.42;;;22.20;94.30;;;22.25;69.24;97196.41;5003924;28;20402;-38
2022/07/23 01:09:51;;;;;;;5.50;3.80;;;22.20;94.40;;;22.18;71.02;97189.88;5004681;28;20485;-38
2022/07/23 01:12:18;;;;;;;4.43;3.70;;;22.10;94.80;;;22.12;70.05;97177.81;5007424;28;20030;-38
2022/07/23 01:14:43;;;;;;;5.15;3.80;;;22.10;94.70;;;22.14;70.50;97183.06;5006673;28;20037;-38
2022/07/23 01:17:09;;;;;;;4.90;3.88;;;22.10;94.90;;;22.13;70.48;97173.31;5005463;28;20028;-38
2022/07/23 01:19:35;;;;;;;4.60;3.47;;;22.10;94.80;;;22.11;70.18;97143.06;5004155;28;20497;-38
2022/07/23 01:22:04;;;;;;;4.47;3.72;;;22.10;94.80;;;22.09;69.83;97139.63;5007211;28;20022;-38
2022/07/23 01:24:30;;;;;;;4.85;3.42;;;22.10;94.80;;;22.04;70.22;97168.75;5005450;28;20030;-38
2022/07/23 01:26:55;;;;;;;5.63;3.58;;;22.00;94.80;;;22.06;70.20;97153.34;5006733;28;20030;-38
2022/07/23 01:29:21;;;;;;;5.78;3.72;;;22.00;94.90;;;22.01;70.32;97166.31;5005166;28;20056;-38
2022/07/23 01:31:48;;;;;;;4.72;3.65;;;22.00;94.90;;;21.96;71.00;97176.63;5006171;28;20450;-38
2022/07/23 01:34:13;;;;;;;5.35;4.18;;;21.90;95.20;;;21.92;70.78;97155.41;5002851;28;20022;-38
2022/07/23 01:36:39;;;;;;;4.25;3.42;;;21.90;95.20;;;21.89;71.16;97147.63;5005991;28;20085;-38
2022/07/23 01:39:07;;;;;;;4.95;3.72;;;21.90;95.40;;;21.87;72.12;97135.31;5004340;28;20096;-38
2022/07/23 01:41:33;;;;;;;3.60;3.08;;;21.90;95.60;;;21.81;72.38;97117.06;5000779;28;20062;-38
2022/07/23 01:43:59;;;;;;;4.22;3.15;;;21.80;95.80;;;21.83;72.47;97129.34;5003969;28;20088;-38
2022/07/23 01:46:25;;;;;;;5.47;3.50;;;21.80;95.80;;;21.83;72.54;97148.16;5005391;28;20037;-38
2022/07/23 01:48:51;;;;;;;3.85;3.22;;;21.80;96.30;;;21.77;73.71;97135.28;5006285;28;20133;-38
2022/07/23 01:51:17;;;;;;;4.72;3.08;;;21.80;96.30;;;21.61;73.47;97124.16;5004746;28;20031;-38
2022/07/23 01:53:42;;;;;;;4.70;3.88;;;21.70;96.30;;;21.70;73.42;97140.31;5003939;28;20745;-38
2022/07/23 01:56:08;;;;;;;4.43;3.53;;;21.70;96.20;;;21.64;73.47;97115.84;5004627;28;20048;-38
2022/07/23 01:58:34;;;;;;;5.80;3.70;;;21.60;96.30;;;21.56;74.08;97119.19;5006129;28;20486;-38
2022/07/23 02:01:00;;;;;;;3.50;3.20;;;21.60;96.50;;;21.35;75.17;97129.88;5004665;28;20368;-38
2022/07/23 02:03:26;;;;;;;8.18;3.70;;;21.50;96.80;;;21.33;75.89;97175.59;5005953;28;20042;-38
2022/07/23 02:05:51;;;;;;;4.38;3.33;;;21.40;97.50;;;21.31;76.39;97190.97;5006398;28;20045;-38
2022/07/23 02:08:17;;;;;;;5.18;4.22;;;21.30;97.40;;;21.28;75.96;97187.69;5003901;28;20080;-38
2022/07/23 02:10:44;;;;;;;4.97;3.80;;;21.30;97.30;;;21.22;76.35;97180.19;5003876;28;20390;-38
2022/07/23 02:13:09;;;;;;;4.97;3.35;;;21.20;97.30;;;21.15;77.03;97182.53;5004364;28;20360;-38
2022/07/23 02:15:36;;;;;;;4.03;3.30;;;21.20;97.70;;;21.01;77.95;97169.41;5005564;28;20045;-38
2022/07/23 02:18:01;;;;;;;4.28;3.38;;;21.10;98.00;;;20.98;78.51;97165.16;5004581;28;20486;-38
2022/07/23 02:20:27;;;;;;;7.20;3.85;;;21.10;98.20;;;20.91;79.53;97174.69;5007805;28;20064;-38
2022/07/23 02:22:53;;;;;;;3.92;3.50;;;21.00;98.50;;;20.85;79.61;97185.91;5008091;28;20034;-38
2022/07/23 02:25:19;;;;;;;5.93;3.67;;;20.90;98.70;;;20.74;79.58;97181.44;5004701;28;20041;-38
2022/07/23 02:27:44;;;;;;;4.10;3.70;;;20.80;98.60;;;20.74;80.27;97202.88;5007743;28;20116;-38
2022/07/23 02:30:11;;;;;;;4.68;3.70;;;20.80;98.90;;;20.72;79.94;97219.06;5005346;28;20037;-38
2022/07/23 02:32:37;;;;;;;3.60;3.30;;;20.70;99.00;;;20.70;80.76;97217.50;5008325;28;20031;-38
2022/07/23 02:35:04;;;;;;;3.35;3.05;;;20.70;99.20;;;20.61;81.67;97216.41;5008342;28;20033;-38
2022/07/23 02:37:30;;;;;;;6.22;3.55;;;20.70;99.60;;;20.59;83.43;97226.38;5002778;28;20557;-38
2022/07/23 02:39:55;;;;;;;4.57;3.30;;;20.60;99.90;;;20.53;83.50;97232.19;5006820;28;20026;-38
2022/07/23 02:42:23;;;;;;;3.78;2.83;;;20.50;99.90;;;20.45;84.41;97238.19;5005111;28;20478;-38
2022/07/23 02:44:50;;;;;;;4.65;3.55;;;20.50;99.90;;;20.39;85.24;97254.75;5008408;28;20041;-38
2022/07/23 02:47:16;;;;;;;4.60;4.05;;;20.40;99.90;;;20.33;85.49;97260.56;5007849;28;20490;-38
2022/07/23 02:49:42;;;;;;;5.50;3.70;;;20.40;99.90;;;20.34;85.19;97263.13;5008107;28;20033;-38
2022/07/23 02:52:10;;;;;;;4.93;3.50;;;20.40;99.90;;;20.32;85.37;97251.69;5006333;28;20497;-38
2022/07/23 02:54:36;;;;;;;4.32;3.45;;;20.40;99.90;;;20.40;85.39;97268.03;5007145;28;20034;-38
2022/07/23 02:57:02;;;;;;;7.57;3.50;;;20.40;99.90;;;20.47;84.43;97268.38;5007445;28;20033;-38
2022/07/23 02:59:28;;;;;;;4.38;3.85;;;20.50;99.90;;;20.57;83.27;97260.47;5004285;28;20408;-38
2022/07/23 03:01:53;;;;;;;4.13;3.30;;;20.50;99.90;;;20.60;83.83;97263.75;5007301;28;20189;-38
2022/07/23 03:04:19;;;;;;;4.13;3.70;;;20.60;99.90;;;20.63;83.49;97257.31;5005712;28;20034;-38
2022/07/23 03:06:45;;;;;;;5.13;3.92;;;20.60;99.90;;;20.65;82.85;97263.41;5007493;28;20029;-38
2022/07/23 03:09:10;;;;;;;4.47;3.65;;;20.70;99.90;;;20.62;83.27;97261.00;5006630;28;20026;-38
2022/07/23 03:11:36;;;;;;;3.80;3.40;;;20.70;99.90;;;20.64;84.01;97277.78;5007419;28;20022;-38
2022/07/23 03:14:02;;;;;;;4.68;3.50;;;20.70;99.90;;;20.61;84.38;97275.34;5008670;28;20025;-38
2022/07/23 03:16:27;;;;;;;4.28;3.55;;;20.60;99.90;;;20.61;84.02;97280.72;5005967;28;20030;-38
2022/07/23 03:18:53;;;;;;;4.68;3.70;;;20.60;99.90;;;20.62;84.17;97273.50;5008160;28;20069;-38
2022/07/23 03:21:19;;;;;;;5.22;3.60;;;20.60;99.90;;;20.60;84.53;97277.16;5007096;28;20034;-38
2022/07/23 03:23:44;;;;;;;4.28;3.22;;;20.60;99.90;;;20.60;84.57;97276.28;5007202;28;20033;-38
2022/07/23 03:26:10;;;;;;;4.65;4.13;;;20.60;99.90;;;20.59;85.62;97274.59;5006245;28;20533;-38
2022/07/23 03:28:36;;;;;;;3.67;3.38;;;20.60;99.90;;;20.59;85.36;97269.22;5006536;28;20092;-38
2022/07/23 03:31:02;;;;;;;5.18;3.65;;;20.60;99.90;;;20.59;85.60;97253.16;5006977;28;20029;-38
2022/07/23 03:33:27;;;;;;;4.70;3.60;;;20.60;99.90;;;20.57;85.57;97257.78;5006574;28;20038;-38
2022/07/23 03:35:53;;;;;;;4.95;3.35;;;20.60;99.90;;;20.52;86.17;97259.97;5006352;28;20017;-38
2022/07/23 03:38:19;;;;;;;4.07;3.65;;;20.50;99.90;;;20.45;86.26;97256.94;5007251;28;20030;-38
2022/07/23 03:40:44;;;;;;;3.50;3.17;;;20.50;99.90;;;20.40;86.68;97259.13;5005481;28;20038;-38
2022/07/23 03:43:10;;;;;;;4.05;3.65;;;20.40;99.90;;;20.29;87.26;97257.28;5005742;28;20033;-38
2022/07/23 03:45:36;;;;;;;4.28;3.88;;;20.40;99.90;;;20.26;87.42;97254.88;5004227;28;20041;-38
2022/07/23 03:48:01;;;;;;;4.70;3.60;;;20.30;99.90;;;20.24;86.98;97248.75;5002060;28;20463;-38
2022/07/23 03:50:27;;;;;;;3.90;3.50;;;20.30;99.90;;;20.26;86.59;97260.22;5005589;28;20025;-38
2022/07/23 03:52:53;;;;;;;4.97;4.05;;;20.30;99.90;;;20.26;86.40;97252.19;5007076;28;20014;-38
2022/07/23 03:55:19;;;;;;;3.75;3.35;;;20.30;99.90;;;20.28;86.70;97252.91;5003275;28;20141;-38
2022/07/23 03:57:45;;;;;;;5.72;3.53;;;20.30;99.90;;;20.26;87.33;97267.38;5007179;28;20550;-38
2022/07/23 04:00:12;;;;;;;4.80;3.45;;;20.30;99.90;;;20.25;86.85;97266.53;5005156;28;20045;-38
2022/07/23 04:02:39;;;;;;;5.22;4.35;;;20.30;99.90;;;20.26;86.68;97268.25;5006263;28;20028;-38
2022/07/23 04:05:06;;;;;;;8.10;4.03;;;20.30;99.90;;;20.30;86.98;97272.41;5005219;28;20808;-38
2022/07/23 04:07:31;;;;;;;5.03;3.65;;;20.30;99.90;;;20.35;87.55;97269.34;5006936;28;20121;-38
2022/07/23 04:09:57;;;;;;;4.30;3.83;;;20.30;99.90;;;20.43;87.86;97271.44;5005544;28;20565;-38
2022/07/23 04:12:24;;;;;;;7.40;4.03;;;20.40;99.90;;;20.49;87.38;97270.94;5006557;28;20318;-38
2022/07/23 04:14:50;;;;;;;4.65;3.90;;;20.50;99.90;;;20.53;87.20;97264.34;5006567;28;20022;-38
2022/07/23 04:17:15;;;;;;;4.68;3.50;;;20.50;99.90;;;20.60;86.56;97265.56;5006175;28;20517;-38
2022/07/23 04:19:43;;;;;;;4.18;3.63;;;20.60;99.90;;;20.73;86.54;97269.00;5005412;28;20354;-38
2022/07/23 04:22:10;;;;;;;3.60;3.17;;;20.70;99.90;;;20.83;85.98;97279.00;5006627;28;20485;-38
2022/07/23 04:24:36;;;;;;;3.75;3.45;;;20.80;99.90;;;20.87;86.11;97267.03;5005448;28;20053;-38
2022/07/23 04:27:02;;;;;;;4.38;3.45;;;20.90;99.90;;;20.94;85.69;97270.91;5004379;28;20498;-38
2022/07/23 04:29:28;;;;;;;4.18;3.65;;;20.90;99.90;;;21.00;84.50;97281.16;5003645;28;20053;-38
2022/07/23 04:31:53;;;;;;;3.85;3.42;;;21.00;99.90;;;21.02;84.15;97273.00;5006566;28;20033;-38
2022/07/23 04:34:19;;;;;;;4.68;3.30;;;21.00;99.90;;;21.10;84.02;97276.75;5004273;28;20477;-38
2022/07/23 04:36:45;;;;;;;4.93;3.75;;;21.10;99.90;;;21.13;82.38;97275.66;5006042;28;20021;-38
2022/07/23 04:39:11;;;;;;;4.68;4.03;;;21.10;99.90;;;21.16;82.26;97276.25;5003065;28;20038;-38
2022/07/23 04:41:36;;;;;;;4.22;3.65;;;21.20;99.90;;;21.17;81.95;97269.91;5005715;28;20037;-38
2022/07/23 04:44:03;;;;;;;4.90;3.88;;;21.20;99.90;;;21.21;81.68;97272.31;5004401;28;20037;-38
2022/07/23 04:46:28;;;;;;;4.18;3.80;;;21.20;99.90;;;21.28;81.10;97268.16;5005642;28;20044;-38
2022/07/23 04:48:54;;;;;;;4.80;4.07;;;21.30;99.90;;;21.33;80.56;97280.22;5006400;28;20026;-38
2022/07/23 04:51:20;;;;;;;5.72;3.65;;;21.30;99.90;;;21.41;80.04;97284.97;5003206;28;20477;-38
2022/07/23 04:53:46;;;;;;;4.25;3.85;;;21.40;99.90;;;21.49;79.62;97279.81;5006043;28;20030;-38
2022/07/23 04:56:12;;;;;;;4.30;3.60;;;21.50;99.90;;;21.58;79.97;97277.38;5005039;28;20406;-38
2022/07/23 04:58:38;;;;;;;4.38;3.53;;;21.50;99.90;;;21.63;79.87;97273.31;5005560;28;20038;-38
2022/07/23 05:01:03;;;;;;;5.25;4.15;;;21.60;99.90;;;21.68;80.63;97270.25;5035381;23;20056;-54
2022/07/23 05:03:29;;;;;;;4.18;3.65;;;21.60;99.90;;;21.73;81.05;97281.44;5025027;28;20029;-53
2022/07/23 05:05:55;;;;;;;4.18;3.40;;;21.70;99.90;;;21.77;80.23;97292.75;5024535;28;20075;-55
2022/07/23 05:08:21;;;;;;;4.18;3.58;;;21.70;99.90;;;21.77;80.51;97277.53;5023644;28;20029;-54
2022/07/23 05:10:47;;;;;;;5.32;3.90;;;21.70;99.90;;;21.75;80.25;97276.81;5027272;28;20025;-54
2022/07/23 05:13:16;;;;;;;5.40;4.00;;;21.70;99.90;;;21.75;79.91;97274.13;5030238;28;20025;-52
2022/07/23 05:15:42;;;;;;;4.35;3.75;;;21.70;99.90;;;21.80;79.24;97289.81;5028396;28;20124;-53
2022/07/23 05:18:08;;;;;;;5.95;3.92;;;21.80;99.90;;;21.85;79.43;97296.50;5029533;28;20024;-55
2022/07/23 05:20:34;;;;;;;6.45;3.63;;;21.90;99.90;;;22.01;79.17;97288.00;5031211;28;20052;-52
2022/07/23 05:22:59;;;;;;;4.00;3.63;;;21.90;99.90;;;22.18;78.90;97293.75;5024990;28;20025;-55
2022/07/23 05:25:25;;;;;;;4.32;3.58;;;22.10;99.90;;;22.32;77.77;97284.53;5025624;28;20098;-54
2022/07/23 05:27:51;;;;;;;5.07;3.47;;;22.20;99.90;;;22.49;77.19;97284.78;5026898;28;20038;-52
2022/07/23 05:30:17;;;;;;;4.60;4.00;;;22.40;99.90;;;22.68;73.63;97293.91;5035426;28;20536;-54
2022/07/23 05:32:42;;;;;;;5.40;4.18;;;22.60;99.90;;;22.87;70.30;97298.53;5024565;28;20021;-55
2022/07/23 05:35:08;;;;;;;6.05;4.32;;;22.80;99.20;;;23.11;69.38;97311.63;5027749;28;20025;-54
2022/07/23 05:37:34;;;;;;;6.13;3.95;;;23.00;98.90;;;23.18;69.84;97325.41;5022922;28;20032;-55
2022/07/23 05:40:03;;;;;;;5.20;3.80;;;23.10;98.70;;;23.08;73.08;97327.19;5031245;28;20029;-55
2022/07/23 05:42:29;;;;;;;5.15;4.30;;;23.00;99.60;;;22.91;71.87;97324.13;5026340;28;20083;-55
2022/07/23 05:44:55;;;;;;;5.72;4.00;;;22.90;99.40;;;22.86;72.32;97332.63;5031211;28;20017;-54
2022/07/23 05:47:20;;;;;;;4.07;3.60;;;22.80;99.40;;;22.90;72.57;97327.84;5029169;28;20025;-53
2022/07/23 05:49:46;;;;;;;4.05;3.65;;;22.80;99.50;;;23.00;72.15;97326.00;5025328;28;20068;-54
2022/07/23 05:52:12;;;;;;;4.60;3.75;;;23.00;99.50;;;23.14;71.42;97327.50;5022160;28;20464;-54
2022/07/23 05:54:37;;;;;;;7.13;4.00;;;23.10;99.30;;;23.29;68.08;97340.56;5028549;28;20026;-55
2022/07/23 05:57:04;;;;;;;6.80;4.28;;;23.20;98.60;;;23.44;65.77;97340.03;5034173;28;20294;-55
2022/07/23 05:59:30;;;;;;;6.07;4.45;;;23.40;97.40;;;23.49;65.27;97344.16;5029820;28;20029;-55
2022/07/23 06:01:56;;;;;;;6.35;4.40;;;23.40;97.00;;;23.47;65.51;97333.53;5028601;28;20419;-53
2022/07/23 06:04:22;;;;;;;4.28;3.78;;;23.40;97.00;;;23.41;66.36;97348.38;5032606;28;20040;-54
2022/07/23 06:06:47;;;;;;;8.52;4.28;;;23.30;97.30;;;23.31;66.00;97349.34;5032599;28;20034;-55
2022/07/23 06:09:13;;;;;;;4.55;4.10;;;23.30;97.40;;;23.29;66.91;97348.66;5031516;28;20060;-55
2022/07/23 06:11:40;;;;;;;4.97;3.83;;;23.20;97.40;;;23.28;68.61;97346.97;5031329;28;20112;-55
2022/07/23 06:14:06;;;;;;;4.88;3.60;;;23.20;97.90;;;23.36;70.26;97337.19;5036206;28;20022;-54
2022/07/23 06:16:32;;;;;;;4.63;4.03;;;23.20;98.50;;;23.38;71.10;97332.53;5028316;28;20063;-55
2022/07/23 06:18:57;;;;;;;5.28;4.20;;;23.20;98.90;;;23.32;71.57;97308.84;5034041;28;20075;-55
2022/07/23 06:21:23;;;;;;;4.63;3.78;;;23.20;99.20;;;23.24;72.68;97320.31;5030797;28;20037;-55
2022/07/23 06:23:49;;;;;;;4.45;4.00;;;23.10;99.50;;;23.19;73.07;97324.41;5029002;28;20477;-55
2022/07/23 06:26:15;;;;;;;4.80;3.72;;;23.10;99.70;;;23.11;74.04;97313.47;5030505;28;20029;-55
2022/07/23 06:28:40;;;;;;;5.45;3.95;;;23.00;99.90;;;23.06;73.63;97321.97;5032560;28;20032;-55
2022/07/23 06:31:06;;;;;;;4.85;4.10;;;22.90;99.90;;;22.98;73.94;97319.91;5034414;28;20029;-54
2022/07/23 06:33:33;;;;;;;6.03;4.75;;;22.90;99.90;;;23.10;72.37;97341.38;5027140;28;20029;-54
2022/07/23 06:35:59;;;;;;;6.15;4.28;;;23.00;99.70;;;23.13;71.99;97339.28;5030989;28;20024;-55
2022/07/23 06:38:24;;;;;;;5.85;4.45;;;23.10;99.40;;;23.29;71.10;97349.47;5032370;28;20032;-55
2022/07/23 06:40:50;;;;;;;5.32;3.90;;;23.20;99.20;;;23.50;70.61;97340.47;5029059;28;20036;-55
2022/07/23 06:43:16;;;;;;;6.82;4.45;;;23.40;98.90;;;23.75;68.20;97350.69;5031984;28;20027;-55
2022/07/23 06:45:42;;;;;;;5.65;4.30;;;23.70;98.50;;;24.05;66.93;97350.72;5028887;28;20022;-55
2022/07/23 06:48:07;;;;;;;4.88;4.20;;;24.00;97.80;;;24.39;64.72;97364.63;5033268;28;20063;-54
2022/07/23 06:50:34;;;;;;;5.88;4.50;;;24.30;97.20;;;24.60;63.34;97366.31;5028560;28;20025;-53
2022/07/23 06:53:00;;;;;;;8.63;4.90;;;24.50;96.50;;;24.62;62.25;97373.28;5032206;28;20018;-55
2022/07/23 06:55:25;;;;;;;4.50;4.10;;;24.50;95.90;;;24.54;64.31;97373.13;5031422;28;20555;-55
2022/07/23 06:57:51;;;;;;;4.88;4.35;;;24.50;96.40;;;24.39;65.18;97376.25;5033289;28;20041;-55
2022/07/23 07:00:17;;;;;;;5.90;4.70;;;24.30;96.80;;;24.18;66.57;97383.63;5029396;28;20025;-54
2022/07/23 07:02:42;;;;;;;6.93;4.88;;;24.20;97.00;;;24.00;68.79;97380.81;5030217;28;20075;-55
2022/07/23 07:05:08;;;;;;;7.05;4.60;;;24.00;97.80;;;23.60;66.69;97369.13;5030906;28;20029;-54
2022/07/23 07:07:35;;;;;;;5.18;4.68;;;23.80;97.00;;;23.55;65.94;97381.28;5027967;28;20052;-55
2022/07/23 07:10:02;;;;;;;7.40;4.30;;;23.50;96.80;;;23.38;67.19;97391.75;5029640;28;20049;-54
2022/07/23 07:12:28;;;;;;;7.53;4.78;;;23.40;97.00;;;23.17;66.35;97399.03;5030321;28;20389;-55
2022/07/23 07:14:54;;;;;;;5.38;4.75;;;23.30;96.70;;;23.11;67.01;97392.31;5031620;28;20042;-55
2022/07/23 07:17:19;;;;;;;8.35;4.70;;;23.20;97.00;;;23.10;66.83;97395.19;5030419;28;20037;-55
2022/07/23 07:19:45;;;;;;;10.00;5.00;;;23.10;97.00;;;23.04;68.56;97388.44;5027754;28;20401;-54
2022/07/23 07:22:11;;;;;;;6.32;4.72;;;23.00;97.60;;;22.90;69.32;97365.47;5029177;28;20021;-54
2022/07/23 07:24:37;;;;;;;4.82;4.13;;;22.90;97.80;;;22.84;70.21;97350.75;5026481;28;20037;-53
2022/07/23 07:27:03;;;;;;;5.90;4.20;;;22.80;98.10;;;22.80;71.47;97361.88;5030429;28;20064;-55
2022/07/23 07:29:28;;;;;;;5.63;4.32;;;22.80;98.70;;;22.69;73.12;97376.25;5033798;28;20030;-53
2022/07/23 07:31:54;;;;;;;5.30;4.35;;;22.70;99.00;;;22.61;75.97;97382.31;5031940;28;20274;-55
2022/07/23 07:34:20;;;;;;;5.07;4.57;;;22.60;99.90;;;22.51;78.08;97378.69;5027519;28;20025;-55
2022/07/23 07:36:46;;;;;;;6.72;5.00;;;22.50;99.90;;;22.35;79.91;97379.16;5028491;28;20504;-55
2022/07/23 07:39:11;;;;;;;7.65;4.68;;;22.50;99.90;;;22.24;81.48;97389.94;5033649;28;20309;-54
2022/07/23 07:41:37;;;;;;;8.85;5.57;;;22.30;99.90;;;22.16;83.11;97403.16;5027776;28;20029;-54
2022/07/23 07:44:03;;;;;;;5.40;4.50;;;22.30;99.90;;;22.29;82.58;97396.66;5034519;28;20389;-54
2022/07/23 07:46:30;;;;;;;7.15;4.95;;;22.40;99.90;;;22.52;80.62;97399.19;5028970;28;20067;-54
2022/07/23 07:48:56;;;;;;;6.85;4.50;;;22.50;99.90;;;22.77;78.78;97414.06;5030015;28;20032;-54
2022/07/23 07:51:21;;;;;;;7.10;4.60;;;22.70;99.90;;;22.86;78.47;97421.34;5029615;28;20276;-54
2022/07/23 07:53:47;;;;;;;6.28;4.72;;;22.90;99.90;;;22.92;78.62;97430.72;5030847;28;20017;-55
2022/07/23 07:56:13;;;;;;;5.68;4.78;;;22.90;99.90;;;22.92;76.70;97436.09;5032454;28;20084;-54
2022/07/23 07:58:39;;;;;;;5.03;4.43;;;22.90;99.90;;;22.97;76.43;97436.56;5029428;28;20112;-55
2022/07/23 08:01:04;;;;;;;6.07;4.40;;;23.00;99.90;;;23.16;75.98;97445.72;5029036;28;20417;-55
2022/07/23 08:03:30;;;;;;;5.47;4.43;;;23.10;99.90;;;23.22;76.02;97442.50;5026069;28;20029;-55
2022/07/23 08:05:56;;;;;;;7.10;5.10;;;23.20;99.90;;;23.27;75.87;97442.94;5031156;28;20056;-54
2022/07/23 08:08:22;;;;;;;6.88;5.10;;;23.30;99.90;;;23.49;73.93;97443.72;5027814;28;20067;-55
2022/07/23 08:10:47;;;;;;;5.95;4.88;;;23.50;99.90;;;23.73;72.83;97448.78;5033089;28;20060;-55
2022/07/23 08:13:15;;;;;;;4.90;4.40;;;23.80;99.70;;;24.03;71.48;97455.97;5032586;28;20048;-54
2022/07/23 08:15:41;;;;;;;5.22;4.20;;;24.00;99.40;;;24.20;68.55;97465.19;5029206;28;20021;-55
2022/07/23 08:18:08;;;;;;;4.82;4.32;;;24.10;98.80;;;24.10;68.30;97459.78;5029408;28;20057;-55
2022/07/23 08:20:33;;;;;;;4.00;3.60;;;24.10;98.20;;;23.93;69.50;97445.16;5032420;28;20036;-55
2022/07/23 08:23:06;;;;;;;5.22;4.30;;;23.90;98.40;;;23.73;70.53;97444.22;5024914;28;20025;-55
2022/07/23 08:25:38;;;;;;;5.93;4.97;;;23.70;98.70;;;23.54;67.11;97436.94;5029591;28;20136;-55
2022/07/23 08:28:07;;;;;;;5.95;4.35;;;23.60;98.00;;;23.51;68.55;97433.66;5029206;28;20029;-55
2022/07/23 08:30:33;;;;;;;4.72;3.67;;;23.50;98.00;;;23.60;68.10;97436.41;5027600;28;20025;-55
2022/07/23 08:33:01;;;;;;;4.63;3.55;;;23.60;98.00;;;23.80;67.14;97434.66;5026475;28;20017;-55
2022/07/23 08:35:31;;;;;;;4.78;3.95;;;23.80;97.70;;;23.92;65.33;97431.81;5030317;28;20580;-55
2022/07/23 08:37:59;;;;;;;4.53;3.40;;;23.90;97.10;;;24.06;64.93;97427.88;5025882;28;20096;-54
2022/07/23 08:40:31;;;;;;;5.07;4.50;;;24.00;96.90;;;24.27;63.10;97443.91;5025294;28;20052;-55
2022/07/23 08:42:57;;;;;;;5.13;4.13;;;24.30;96.40;;;24.43;63.43;97441.50;5029773;28;20374;-55
2022/07/23 08:45:24;;;;;;;9.20;4.65;;;24.50;96.10;;;24.62;61.02;97439.78;5028716;28;20292;-55
2022/07/23 08:47:54;;;;;;;4.57;4.07;;;24.70;95.40;;;24.81;60.77;97436.22;5022261;28;20053;-55
2022/07/23 08:50:21;;;;;;;6.40;4.43;;;24.80;95.30;;;24.91;57.67;97431.69;5028191;28;20261;-55
2022/07/23 08:52:50;;;;;;;5.28;4.47;;;25.00;94.50;;;25.01;57.55;97439.72;5029528;28;20354;-55
2022/07/23 08:55:21;;;;;;;5.22;4.00;;;24.90;94.10;;;25.10;57.93;97438.84;5031087;28;20049;-55
2022/07/23 08:57:52;;;;;;;6.93;4.30;;;25.00;94.00;;;25.14;57.71;97434.84;5027461;28;20029;-55
2022/07/23 09:00:21;;;;;;;4.32;3.90;;;25.10;94.00;;;25.19;57.18;97432.56;5028726;28;20060;-55
2022/07/23 09:02:49;;;;;;;4.57;4.00;;;25.10;93.80;;;25.37;55.56;97429.97;5025388;28;20098;-55
2022/07/23 09:05:16;;;;;;;5.43;4.43;;;25.20;93.40;;;25.53;54.91;97434.72;5029894;28;20079;-56
2022/07/23 09:08:07;;;;;;;4.47;4.05;;;25.50;93.40;;;26.01;54.05;97427.38;5029327;28;20104;-56
2022/07/23 09:10:58;;;;;;;6.20;4.43;;;26.00;92.50;;;26.51;51.58;97429.50;5027392;28;20038;-55
2022/07/23 09:13:43;;;;;;;5.53;4.78;;;26.50;91.80;;;27.03;51.02;97434.16;5029780;28;20033;-55
2022/07/23 09:16:13;;;;;;;5.22;4.65;;;26.90;91.30;;;27.44;48.74;97434.41;5029713;28;20033;-54
2022/07/23 09:18:44;;;;;;;5.60;4.60;;;27.40;90.50;;;27.61;47.17;97432.59;5027127;28;20036;-56
2022/07/23 09:21:28;;;;;;;6.95;4.70;;;27.70;88.00;;;27.73;45.26;97428.59;5028309;28;20075;-55
2022/07/23 09:23:58;;;;;;;5.07;4.57;;;27.70;86.20;;;27.76;46.41;97424.69;5024607;28;20292;-55
2022/07/23 09:26:32;;;;;;;5.50;4.55;;;27.80;85.40;;;27.87;46.27;97421.69;5029186;28;20363;-55
2022/07/23 09:29:22;;;;;;;6.97;4.45;;;27.90;86.50;;;27.79;45.09;97424.38;5029396;28;20025;-56
2022/07/23 09:31:54;;;;;;;4.80;4.30;;;27.80;83.80;;;27.69;45.59;97419.09;5028786;28;20021;-55
2022/07/23 09:34:27;;;;;;;5.25;4.47;;;27.70;83.80;;;27.75;45.61;97415.72;5025762;28;20038;-55
2022/07/23 09:37:08;;;;;;;6.18;4.38;;;27.70;84.80;;;27.85;46.15;97420.97;5027183;28;20486;-55
2022/07/23 09:39:35;;;;;;;5.82;4.15;;;27.80;84.60;;;27.93;46.24;97417.50;5024611;28;20457;-55
2022/07/23 09:42:17;;;;;;;5.95;4.60;;;27.80;84.80;;;27.88;44.43;97414.41;5028039;28;20022;-53
2022/07/23 09:44:49;;;;;;;;;;;27.90;83.70;;;28.06;46.14;97417.00;5030422;28;20030;-55
2022/07/23 09:47:16;;;;;;;5.27;4.50;;;28.00;84.20;;;28.10;44.84;97418.38;5025080;28;20335;-55
2022/07/23 09:50:05;;;;;;;5.82;4.90;;;28.10;82.60;;;27.57;44.88;97409.56;5025510;28;20835;-53
2022/07/23 09:52:35;;;;;;;7.05;4.40;;;27.90;80.90;;;27.30;46.31;97405.22;5027292;28;20091;-55
2022/07/23 09:55:04;;;;;;;5.97;4.50;;;27.40;82.60;;;27.18;48.25;97410.03;5031656;28;20203;-55
2022/07/23 09:57:32;;;;;;;5.38;4.43;;;27.20;84.60;;;27.13;46.64;97415.09;5026591;28;20057;-53
2022/07/23 10:00:07;;;;;;;6.60;4.57;;;27.10;83.40;;;26.93;47.17;97407.19;5030174;28;20120;-55
2022/07/23 10:02:33;;;;;;;4.50;4.10;;;27.00;83.90;;;26.99;47.08;97416.50;5029068;28;20043;-57
2022/07/23 10:05:02;;;;;;;5.28;4.78;;;27.00;84.20;;;26.93;44.60;97417.16;5026870;28;20509;-55
2022/07/23 10:07:34;;;;;;;5.13;4.28;;;27.00;81.60;;;26.90;45.59;97412.06;5030693;28;20033;-55
2022/07/23 10:10:01;;;;;;;;;;;26.90;81.90;;;26.96;45.44;97417.69;5025416;28;20024;-54
2022/07/23 10:15:08;;;;;;;5.28;4.45;;;26.90;80.40;;;26.94;46.19;97416.16;5025762;28;20029;-55
2022/07/23 10:17:34;;;;;;;6.30;4.40;;;26.90;82.10;;;26.93;45.49;97418.00;5028966;28;20021;-55
2022/07/23 10:20:00;;;;;;;5.70;4.05;;;26.90;81.40;;;26.98;45.15;97415.66;5027912;28;20021;-55
2022/07/23 10:22:32;;;;;;;20.55;6.70;;;27.00;81.20;;;26.98;46.25;97418.38;5025586;28;20602;-55